sim
Sign-in with your pilot id or email,
or register
Callsign
Passwort

Schedule Details

Flight Number: EWG6003
Departure: Dusseldorf International Airport (EDDL) at 17:50
Arrival: Munich Airport (EDDM) at 19:05
Route: Eurowings Passenger Schedule. Enter filed route here before submitting Pirep.

Weather Information
Getting current METAR information for EDDL 281050Z 19008KT 9999 -RA FEW012 BKN020 13/09 Q1010 NOSIG
Getting current METAR information for EDDM 281050Z 26004KT 210V310 9999 FEW007 09/07 Q1011 NOSIG

Schedule Frequency

Route Map